sensor_id;sensor_type;location;lat;lon;timestamp;P1;durP1;ratioP1;P2;durP2;ratioP2
15082;SDS011;7640;53.116;6.878;2022-11-28T00:01:38;13.20;;;9.53;;
15082;SDS011;7640;53.116;6.878;2022-11-28T00:04:10;14.20;;;10.37;;
15082;SDS011;7640;53.116;6.878;2022-11-28T00:06:40;15.23;;;9.77;;
15082;SDS011;7640;53.116;6.878;2022-11-28T00:09:13;15.47;;;10.10;;
15082;SDS011;7640;53.116;6.878;2022-11-28T00:11:42;15.53;;;10.57;;
15082;SDS011;7640;53.116;6.878;2022-11-28T00:14:13;16.83;;;10.53;;
15082;SDS011;7640;53.116;6.878;2022-11-28T00:16:44;16.17;;;10.90;;
15082;SDS011;7640;53.116;6.878;2022-11-28T00:19:13;16.33;;;10.07;;
15082;SDS011;7640;53.116;6.878;2022-11-28T00:21:42;14.47;;;9.73;;
15082;SDS011;7640;53.116;6.878;2022-11-28T00:24:10;13.90;;;10.53;;
15082;SDS011;7640;53.116;6.878;2022-11-28T00:26:40;15.03;;;9.70;;
15082;SDS011;7640;53.116;6.878;2022-11-28T00:29:09;13.80;;;9.10;;
15082;SDS011;7640;53.116;6.878;2022-11-28T00:31:39;17.03;;;10.30;;
15082;SDS011;7640;53.116;6.878;2022-11-28T00:34:10;11.63;;;9.20;;
15082;SDS011;7640;53.116;6.878;2022-11-28T00:36:41;13.90;;;10.30;;
15082;SDS011;7640;53.116;6.878;2022-11-28T00:39:14;13.23;;;9.53;;
15082;SDS011;7640;53.116;6.878;2022-11-28T00:41:43;17.03;;;10.40;;
15082;SDS011;7640;53.116;6.878;2022-11-28T00:44:12;16.67;;;10.37;;
15082;SDS011;7640;53.116;6.878;2022-11-28T00:46:41;14.97;;;10.07;;
15082;SDS011;7640;53.116;6.878;2022-11-28T00:49:09;13.87;;;10.07;;
15082;SDS011;7640;53.116;6.878;2022-11-28T00:51:37;15.93;;;10.43;;
15082;SDS011;7640;53.116;6.878;2022-11-28T00:54:06;16.90;;;10.70;;
15082;SDS011;7640;53.116;6.878;2022-11-28T00:56:36;15.13;;;10.20;;
15082;SDS011;7640;53.116;6.878;2022-11-28T00:59:07;16.90;;;10.73;;
15082;SDS011;7640;53.116;6.878;2022-11-28T01:01:36;15.73;;;10.50;;
15082;SDS011;7640;53.116;6.878;2022-11-28T01:04:07;15.50;;;11.07;;
15082;SDS011;7640;53.116;6.878;2022-11-28T01:06:38;16.63;;;10.93;;
15082;SDS011;7640;53.116;6.878;2022-11-28T01:09:09;13.63;;;10.57;;
15082;SDS011;7640;53.116;6.878;2022-11-28T01:11:42;16.13;;;11.13;;
15082;SDS011;7640;53.116;6.878;2022-11-28T01:14:14;17.17;;;10.60;;
15082;SDS011;7640;53.116;6.878;2022-11-28T01:16:43;14.97;;;10.67;;
15082;SDS011;7640;53.116;6.878;2022-11-28T01:19:12;16.20;;;11.20;;
15082;SDS011;7640;53.116;6.878;2022-11-28T01:21:41;15.63;;;11.03;;
15082;SDS011;7640;53.116;6.878;2022-11-28T01:24:09;16.13;;;10.23;;
15082;SDS011;7640;53.116;6.878;2022-11-28T01:26:38;16.77;;;10.97;;
15082;SDS011;7640;53.116;6.878;2022-11-28T01:29:09;14.70;;;10.40;;
15082;SDS011;7640;53.116;6.878;2022-11-28T01:31:39;15.57;;;11.17;;
15082;SDS011;7640;53.116;6.878;2022-11-28T01:34:07;16.53;;;10.70;;
15082;SDS011;7640;53.116;6.878;2022-11-28T01:36:36;15.57;;;10.97;;
15082;SDS011;7640;53.116;6.878;2022-11-28T01:39:04;14.47;;;10.57;;
15082;SDS011;7640;53.116;6.878;2022-11-28T01:41:33;17.77;;;10.93;;
15082;SDS011;7640;53.116;6.878;2022-11-28T01:44:03;17.27;;;10.60;;
15082;SDS011;7640;53.116;6.878;2022-11-28T01:46:36;15.90;;;10.80;;
15082;SDS011;7640;53.116;6.878;2022-11-28T01:49:06;14.77;;;10.30;;
15082;SDS011;7640;53.116;6.878;2022-11-28T01:51:39;15.43;;;10.60;;
15082;SDS011;7640;53.116;6.878;2022-11-28T01:54:12;14.57;;;10.50;;
15082;SDS011;7640;53.116;6.878;2022-11-28T01:56:44;16.77;;;11.57;;
15082;SDS011;7640;53.116;6.878;2022-11-28T01:59:17;16.63;;;12.03;;
15082;SDS011;7640;53.116;6.878;2022-11-28T02:01:48;16.10;;;11.37;;
15082;SDS011;7640;53.116;6.878;2022-11-28T02:04:16;16.10;;;11.73;;
15082;SDS011;7640;53.116;6.878;2022-11-28T02:06:45;18.73;;;12.33;;
15082;SDS011;7640;53.116;6.878;2022-11-28T02:09:14;15.77;;;11.50;;
15082;SDS011;7640;53.116;6.878;2022-11-28T02:18:03;20.57;;;13.80;;
15082;SDS011;7640;53.116;6.878;2022-11-28T02:23:57;20.60;;;13.00;;
15082;SDS011;7640;53.116;6.878;2022-11-28T02:27:06;19.43;;;13.20;;
15082;SDS011;7640;53.116;6.878;2022-11-28T02:30:08;18.43;;;12.83;;
15082;SDS011;7640;53.116;6.878;2022-11-28T02:32:55;19.43;;;13.43;;
15082;SDS011;7640;53.116;6.878;2022-11-28T02:35:33;20.30;;;13.53;;
15082;SDS011;7640;53.116;6.878;2022-11-28T02:38:12;21.37;;;14.73;;
15082;SDS011;7640;53.116;6.878;2022-11-28T02:40:48;21.23;;;14.00;;
15082;SDS011;7640;53.116;6.878;2022-11-28T02:43:26;17.23;;;12.00;;
15082;SDS011;7640;53.116;6.878;2022-11-28T02:46:02;21.57;;;13.87;;
15082;SDS011;7640;53.116;6.878;2022-11-28T02:48:42;19.53;;;13.63;;
15082;SDS011;7640;53.116;6.878;2022-11-28T02:51:17;18.33;;;13.17;;
15082;SDS011;7640;53.116;6.878;2022-11-28T02:53:52;20.13;;;13.53;;
15082;SDS011;7640;53.116;6.878;2022-11-28T02:56:23;19.03;;;13.53;;
15082;SDS011;7640;53.116;6.878;2022-11-28T02:58:52;17.10;;;12.40;;
15082;SDS011;7640;53.116;6.878;2022-11-28T03:01:21;20.80;;;13.40;;
15082;SDS011;7640;53.116;6.878;2022-11-28T03:04:08;21.10;;;13.97;;
15082;SDS011;7640;53.116;6.878;2022-11-28T03:06:47;19.53;;;13.00;;
15082;SDS011;7640;53.116;6.878;2022-11-28T03:09:29;23.23;;;14.37;;
15082;SDS011;7640;53.116;6.878;2022-11-28T03:12:19;18.20;;;12.73;;
15082;SDS011;7640;53.116;6.878;2022-11-28T03:14:54;19.10;;;12.53;;
15082;SDS011;7640;53.116;6.878;2022-11-28T03:17:26;18.70;;;13.07;;
15082;SDS011;7640;53.116;6.878;2022-11-28T03:20:14;19.00;;;13.77;;
15082;SDS011;7640;53.116;6.878;2022-11-28T03:22:54;17.70;;;12.43;;
15082;SDS011;7640;53.116;6.878;2022-11-28T03:25:33;18.03;;;12.30;;
15082;SDS011;7640;53.116;6.878;2022-11-28T03:28:12;19.57;;;13.63;;
15082;SDS011;7640;53.116;6.878;2022-11-28T03:30:47;20.37;;;12.70;;
15082;SDS011;7640;53.116;6.878;2022-11-28T03:33:19;22.10;;;13.57;;
15082;SDS011;7640;53.116;6.878;2022-11-28T03:35:53;20.13;;;13.77;;
15082;SDS011;7640;53.116;6.878;2022-11-28T03:38:26;21.00;;;14.23;;
15082;SDS011;7640;53.116;6.878;2022-11-28T03:41:00;20.67;;;13.63;;
15082;SDS011;7640;53.116;6.878;2022-11-28T03:43:35;19.33;;;13.10;;
15082;SDS011;7640;53.116;6.878;2022-11-28T03:46:10;22.40;;;14.77;;
15082;SDS011;7640;53.116;6.878;2022-11-28T03:48:43;19.20;;;13.60;;
15082;SDS011;7640;53.116;6.878;2022-11-28T03:51:16;20.73;;;14.27;;
15082;SDS011;7640;53.116;6.878;2022-11-28T03:53:49;21.30;;;14.53;;
15082;SDS011;7640;53.116;6.878;2022-11-28T03:56:21;22.13;;;14.10;;
15082;SDS011;7640;53.116;6.878;2022-11-28T03:58:57;19.67;;;13.77;;
15082;SDS011;7640;53.116;6.878;2022-11-28T04:01:31;20.93;;;14.23;;
15082;SDS011;7640;53.116;6.878;2022-11-28T04:04:12;20.27;;;13.40;;
15082;SDS011;7640;53.116;6.878;2022-11-28T04:06:51;18.60;;;13.93;;
15082;SDS011;7640;53.116;6.878;2022-11-28T04:09:26;21.57;;;13.77;;
15082;SDS011;7640;53.116;6.878;2022-11-28T04:12:08;21.23;;;14.57;;
15082;SDS011;7640;53.116;6.878;2022-11-28T04:14:44;20.50;;;14.33;;
15082;SDS011;7640;53.116;6.878;2022-11-28T04:17:18;21.10;;;14.17;;
15082;SDS011;7640;53.116;6.878;2022-11-28T04:19:54;21.57;;;14.23;;
15082;SDS011;7640;53.116;6.878;2022-11-28T04:22:32;20.00;;;14.73;;
15082;SDS011;7640;53.116;6.878;2022-11-28T04:25:05;22.70;;;15.27;;
15082;SDS011;7640;53.116;6.878;2022-11-28T04:27:39;23.17;;;15.43;;
15082;SDS011;7640;53.116;6.878;2022-11-28T04:30:11;22.67;;;15.10;;
15082;SDS011;7640;53.116;6.878;2022-11-28T04:32:41;22.93;;;15.00;;
15082;SDS011;7640;53.116;6.878;2022-11-28T04:35:18;27.83;;;16.13;;
15082;SDS011;7640;53.116;6.878;2022-11-28T04:37:54;22.10;;;15.53;;
15082;SDS011;7640;53.116;6.878;2022-11-28T04:40:25;23.80;;;15.97;;
15082;SDS011;7640;53.116;6.878;2022-11-28T04:42:57;24.67;;;17.27;;
15082;SDS011;7640;53.116;6.878;2022-11-28T04:45:31;23.17;;;16.43;;
15082;SDS011;7640;53.116;6.878;2022-11-28T04:48:02;26.07;;;18.23;;
15082;SDS011;7640;53.116;6.878;2022-11-28T04:50:40;26.00;;;18.03;;
15082;SDS011;7640;53.116;6.878;2022-11-28T04:53:17;27.00;;;18.47;;
15082;SDS011;7640;53.116;6.878;2022-11-28T04:55:53;30.07;;;19.33;;
15082;SDS011;7640;53.116;6.878;2022-11-28T04:58:28;27.83;;;18.57;;
15082;SDS011;7640;53.116;6.878;2022-11-28T05:01:01;24.33;;;17.43;;
15082;SDS011;7640;53.116;6.878;2022-11-28T05:03:34;28.13;;;17.77;;
15082;SDS011;7640;53.116;6.878;2022-11-28T05:06:08;31.60;;;20.10;;
15082;SDS011;7640;53.116;6.878;2022-11-28T05:08:38;28.63;;;19.53;;
15082;SDS011;7640;53.116;6.878;2022-11-28T05:11:07;29.73;;;19.97;;
15082;SDS011;7640;53.116;6.878;2022-11-28T05:13:35;29.20;;;19.83;;
15082;SDS011;7640;53.116;6.878;2022-11-28T05:16:04;32.87;;;21.43;;
15082;SDS011;7640;53.116;6.878;2022-11-28T05:18:33;33.53;;;22.90;;
15082;SDS011;7640;53.116;6.878;2022-11-28T05:21:02;35.27;;;22.70;;
15082;SDS011;7640;53.116;6.878;2022-11-28T05:23:33;40.37;;;22.77;;
15082;SDS011;7640;53.116;6.878;2022-11-28T05:26:05;41.27;;;24.40;;
15082;SDS011;7640;53.116;6.878;2022-11-28T05:28:35;39.47;;;23.83;;
15082;SDS011;7640;53.116;6.878;2022-11-28T05:31:04;38.00;;;24.33;;
15082;SDS011;7640;53.116;6.878;2022-11-28T05:33:32;42.57;;;26.90;;
15082;SDS011;7640;53.116;6.878;2022-11-28T05:36:01;45.27;;;27.67;;
15082;SDS011;7640;53.116;6.878;2022-11-28T05:38:37;44.83;;;27.43;;
15082;SDS011;7640;53.116;6.878;2022-11-28T05:41:07;47.77;;;27.47;;
15082;SDS011;7640;53.116;6.878;2022-11-28T05:43:37;50.47;;;27.37;;
15082;SDS011;7640;53.116;6.878;2022-11-28T05:46:05;48.90;;;27.83;;
15082;SDS011;7640;53.116;6.878;2022-11-28T05:48:34;52.33;;;28.17;;
15082;SDS011;7640;53.116;6.878;2022-11-28T05:51:02;48.77;;;27.87;;
15082;SDS011;7640;53.116;6.878;2022-11-28T05:53:31;44.13;;;27.83;;
15082;SDS011;7640;53.116;6.878;2022-11-28T05:56:04;48.33;;;27.80;;
15082;SDS011;7640;53.116;6.878;2022-11-28T05:58:35;44.93;;;27.97;;
15082;SDS011;7640;53.116;6.878;2022-11-28T06:01:09;49.47;;;28.80;;
15082;SDS011;7640;53.116;6.878;2022-11-28T06:03:39;44.50;;;26.00;;
15082;SDS011;7640;53.116;6.878;2022-11-28T06:06:10;41.97;;;25.90;;
15082;SDS011;7640;53.116;6.878;2022-11-28T06:08:40;44.40;;;27.10;;
15082;SDS011;7640;53.116;6.878;2022-11-28T06:11:08;44.77;;;27.30;;
15082;SDS011;7640;53.116;6.878;2022-11-28T06:13:39;44.60;;;27.27;;
15082;SDS011;7640;53.116;6.878;2022-11-28T06:16:07;43.03;;;28.13;;
15082;SDS011;7640;53.116;6.878;2022-11-28T06:18:37;46.13;;;28.40;;
15082;SDS011;7640;53.116;6.878;2022-11-28T06:21:06;48.17;;;29.90;;
15082;SDS011;7640;53.116;6.878;2022-11-28T06:23:36;44.13;;;28.23;;
15082;SDS011;7640;53.116;6.878;2022-11-28T06:26:05;50.80;;;31.23;;
15082;SDS011;7640;53.116;6.878;2022-11-28T06:28:36;48.07;;;30.73;;
15082;SDS011;7640;53.116;6.878;2022-11-28T06:31:08;49.23;;;30.97;;
15082;SDS011;7640;53.116;6.878;2022-11-28T06:33:38;48.87;;;30.97;;
15082;SDS011;7640;53.116;6.878;2022-11-28T06:36:07;54.00;;;31.67;;
15082;SDS011;7640;53.116;6.878;2022-11-28T06:38:38;48.73;;;30.47;;
15082;SDS011;7640;53.116;6.878;2022-11-28T06:41:07;49.47;;;29.83;;
15082;SDS011;7640;53.116;6.878;2022-11-28T06:43:40;51.37;;;31.90;;
15082;SDS011;7640;53.116;6.878;2022-11-28T06:46:10;45.97;;;30.27;;
15082;SDS011;7640;53.116;6.878;2022-11-28T06:48:42;47.00;;;30.47;;
15082;SDS011;7640;53.116;6.878;2022-11-28T06:51:10;52.97;;;33.50;;
15082;SDS011;7640;53.116;6.878;2022-11-28T06:53:39;48.70;;;31.43;;
15082;SDS011;7640;53.116;6.878;2022-11-28T06:56:09;47.63;;;31.53;;
15082;SDS011;7640;53.116;6.878;2022-11-28T06:58:41;51.93;;;32.27;;
15082;SDS011;7640;53.116;6.878;2022-11-28T07:01:11;49.67;;;31.40;;
15082;SDS011;7640;53.116;6.878;2022-11-28T07:03:42;49.80;;;31.20;;
15082;SDS011;7640;53.116;6.878;2022-11-28T07:06:11;46.83;;;29.80;;
15082;SDS011;7640;53.116;6.878;2022-11-28T07:08:41;43.13;;;29.67;;
15082;SDS011;7640;53.116;6.878;2022-11-28T07:11:11;45.47;;;28.63;;
15082;SDS011;7640;53.116;6.878;2022-11-28T07:13:43;41.47;;;28.77;;
15082;SDS011;7640;53.116;6.878;2022-11-28T07:16:14;42.70;;;28.17;;
15082;SDS011;7640;53.116;6.878;2022-11-28T07:18:45;41.07;;;28.27;;
15082;SDS011;7640;53.116;6.878;2022-11-28T07:21:14;40.20;;;27.10;;
15082;SDS011;7640;53.116;6.878;2022-11-28T07:23:43;38.23;;;26.23;;
15082;SDS011;7640;53.116;6.878;2022-11-28T07:26:14;41.90;;;27.10;;
15082;SDS011;7640;53.116;6.878;2022-11-28T07:28:45;38.40;;;26.13;;
15082;SDS011;7640;53.116;6.878;2022-11-28T07:31:15;37.43;;;24.40;;
15082;SDS011;7640;53.116;6.878;2022-11-28T07:33:46;35.10;;;25.27;;
15082;SDS011;7640;53.116;6.878;2022-11-28T07:36:18;33.17;;;22.33;;
15082;SDS011;7640;53.116;6.878;2022-11-28T07:38:49;35.70;;;25.13;;
15082;SDS011;7640;53.116;6.878;2022-11-28T07:41:20;34.40;;;24.67;;
15082;SDS011;7640;53.116;6.878;2022-11-28T07:43:54;34.53;;;24.33;;
15082;SDS011;7640;53.116;6.878;2022-11-28T07:46:24;32.80;;;22.50;;
15082;SDS011;7640;53.116;6.878;2022-11-28T07:48:54;38.60;;;24.57;;
15082;SDS011;7640;53.116;6.878;2022-11-28T07:51:23;34.37;;;24.90;;
15082;SDS011;7640;53.116;6.878;2022-11-28T07:53:53;36.87;;;24.20;;
15082;SDS011;7640;53.116;6.878;2022-11-28T07:56:23;35.93;;;23.33;;
15082;SDS011;7640;53.116;6.878;2022-11-28T07:59:16;32.63;;;22.40;;
15082;SDS011;7640;53.116;6.878;2022-11-28T08:01:45;38.53;;;23.73;;
15082;SDS011;7640;53.116;6.878;2022-11-28T08:04:14;35.40;;;23.27;;
15082;SDS011;7640;53.116;6.878;2022-11-28T08:06:43;32.30;;;22.63;;
15082;SDS011;7640;53.116;6.878;2022-11-28T08:09:11;35.50;;;22.70;;
15082;SDS011;7640;53.116;6.878;2022-11-28T08:11:40;31.33;;;21.63;;
15082;SDS011;7640;53.116;6.878;2022-11-28T08:14:08;31.67;;;20.93;;
15082;SDS011;7640;53.116;6.878;2022-11-28T08:16:38;34.40;;;22.33;;
15082;SDS011;7640;53.116;6.878;2022-11-28T08:19:10;35.37;;;22.53;;
15082;SDS011;7640;53.116;6.878;2022-11-28T08:21:39;32.70;;;21.13;;
15082;SDS011;7640;53.116;6.878;2022-11-28T08:24:09;31.73;;;20.27;;
15082;SDS011;7640;53.116;6.878;2022-11-28T08:26:38;28.57;;;20.67;;
15082;SDS011;7640;53.116;6.878;2022-11-28T08:29:06;30.27;;;19.37;;
15082;SDS011;7640;53.116;6.878;2022-11-28T08:31:36;30.00;;;19.73;;
15082;SDS011;7640;53.116;6.878;2022-11-28T08:34:08;27.80;;;17.70;;
15082;SDS011;7640;53.116;6.878;2022-11-28T08:36:38;31.33;;;18.77;;
15082;SDS011;7640;53.116;6.878;2022-11-28T08:39:06;29.83;;;19.03;;
15082;SDS011;7640;53.116;6.878;2022-11-28T08:41:51;27.90;;;18.40;;
15082;SDS011;7640;53.116;6.878;2022-11-28T08:44:22;29.93;;;18.80;;
15082;SDS011;7640;53.116;6.878;2022-11-28T08:46:52;27.33;;;18.73;;
15082;SDS011;7640;53.116;6.878;2022-11-28T08:49:21;27.17;;;18.20;;
15082;SDS011;7640;53.116;6.878;2022-11-28T08:51:49;25.87;;;17.80;;
15082;SDS011;7640;53.116;6.878;2022-11-28T08:54:19;25.63;;;18.10;;
15082;SDS011;7640;53.116;6.878;2022-11-28T08:56:47;24.77;;;17.37;;
15082;SDS011;7640;53.116;6.878;2022-11-28T08:59:16;24.43;;;16.97;;
15082;SDS011;7640;53.116;6.878;2022-11-28T09:01:44;29.90;;;19.10;;
15082;SDS011;7640;53.116;6.878;2022-11-28T09:04:14;24.07;;;16.63;;
15082;SDS011;7640;53.116;6.878;2022-11-28T09:06:43;26.07;;;17.30;;
15082;SDS011;7640;53.116;6.878;2022-11-28T09:09:14;28.90;;;18.43;;
15082;SDS011;7640;53.116;6.878;2022-11-28T09:11:42;25.87;;;18.47;;
15082;SDS011;7640;53.116;6.878;2022-11-28T09:14:11;26.03;;;18.03;;
15082;SDS011;7640;53.116;6.878;2022-11-28T09:16:39;25.40;;;17.33;;
15082;SDS011;7640;53.116;6.878;2022-11-28T09:19:08;26.40;;;17.40;;
15082;SDS011;7640;53.116;6.878;2022-11-28T09:21:37;27.13;;;18.13;;
15082;SDS011;7640;53.116;6.878;2022-11-28T09:24:07;27.73;;;18.07;;
15082;SDS011;7640;53.116;6.878;2022-11-28T09:26:39;29.47;;;18.90;;
15082;SDS011;7640;53.116;6.878;2022-11-28T09:29:07;27.77;;;17.67;;
15082;SDS011;7640;53.116;6.878;2022-11-28T09:31:35;28.50;;;17.63;;
15082;SDS011;7640;53.116;6.878;2022-11-28T09:34:11;28.60;;;18.10;;
15082;SDS011;7640;53.116;6.878;2022-11-28T09:36:40;30.93;;;19.67;;
15082;SDS011;7640;53.116;6.878;2022-11-28T09:39:09;29.53;;;18.87;;
15082;SDS011;7640;53.116;6.878;2022-11-28T09:41:42;31.07;;;19.67;;
15082;SDS011;7640;53.116;6.878;2022-11-28T09:44:20;26.80;;;17.77;;
15082;SDS011;7640;53.116;6.878;2022-11-28T09:46:53;26.63;;;18.30;;
15082;SDS011;7640;53.116;6.878;2022-11-28T09:49:28;32.47;;;19.87;;
15082;SDS011;7640;53.116;6.878;2022-11-28T09:52:11;30.07;;;19.17;;
15082;SDS011;7640;53.116;6.878;2022-11-28T09:54:55;28.23;;;18.60;;
15082;SDS011;7640;53.116;6.878;2022-11-28T09:57:37;31.60;;;19.43;;
15082;SDS011;7640;53.116;6.878;2022-11-28T10:00:10;29.57;;;18.17;;
15082;SDS011;7640;53.116;6.878;2022-11-28T10:02:50;31.33;;;20.33;;
15082;SDS011;7640;53.116;6.878;2022-11-28T10:05:35;29.43;;;18.43;;
15082;SDS011;7640;53.116;6.878;2022-11-28T10:08:13;29.70;;;19.83;;
15082;SDS011;7640;53.116;6.878;2022-11-28T10:10:52;29.67;;;19.13;;
15082;SDS011;7640;53.116;6.878;2022-11-28T10:13:31;28.27;;;18.13;;
15082;SDS011;7640;53.116;6.878;2022-11-28T10:16:32;29.93;;;18.40;;
15082;SDS011;7640;53.116;6.878;2022-11-28T10:19:12;28.00;;;18.13;;
15082;SDS011;7640;53.116;6.878;2022-11-28T10:22:05;31.00;;;19.80;;
15082;SDS011;7640;53.116;6.878;2022-11-28T10:24:42;31.27;;;19.57;;
15082;SDS011;7640;53.116;6.878;2022-11-28T10:27:15;27.60;;;17.93;;
15082;SDS011;7640;53.116;6.878;2022-11-28T10:29:54;26.53;;;18.03;;
15082;SDS011;7640;53.116;6.878;2022-11-28T10:32:28;27.37;;;17.93;;
15082;SDS011;7640;53.116;6.878;2022-11-28T10:35:03;26.80;;;17.97;;
15082;SDS011;7640;53.116;6.878;2022-11-28T10:37:36;24.67;;;17.20;;
15082;SDS011;7640;53.116;6.878;2022-11-28T10:40:14;27.07;;;17.80;;
15082;SDS011;7640;53.116;6.878;2022-11-28T10:42:51;25.37;;;16.97;;
15082;SDS011;7640;53.116;6.878;2022-11-28T10:45:26;25.90;;;17.13;;
15082;SDS011;7640;53.116;6.878;2022-11-28T10:48:11;24.43;;;16.43;;
15082;SDS011;7640;53.116;6.878;2022-11-28T10:51:10;24.50;;;16.77;;
15082;SDS011;7640;53.116;6.878;2022-11-28T10:54:00;28.33;;;18.10;;
15082;SDS011;7640;53.116;6.878;2022-11-28T10:56:45;25.77;;;16.27;;
15082;SDS011;7640;53.116;6.878;2022-11-28T10:59:27;21.60;;;15.97;;
15082;SDS011;7640;53.116;6.878;2022-11-28T11:02:16;21.83;;;16.33;;
15082;SDS011;7640;53.116;6.878;2022-11-28T11:04:48;23.37;;;16.83;;
15082;SDS011;7640;53.116;6.878;2022-11-28T11:07:17;24.17;;;15.77;;
15082;SDS011;7640;53.116;6.878;2022-11-28T11:09:55;22.13;;;15.50;;
15082;SDS011;7640;53.116;6.878;2022-11-28T11:12:29;23.10;;;15.70;;
15082;SDS011;7640;53.116;6.878;2022-11-28T11:15:08;22.77;;;15.73;;
15082;SDS011;7640;53.116;6.878;2022-11-28T11:17:46;20.07;;;14.73;;
15082;SDS011;7640;53.116;6.878;2022-11-28T11:20:29;20.73;;;15.10;;
15082;SDS011;7640;53.116;6.878;2022-11-28T11:23:09;21.43;;;14.77;;
15082;SDS011;7640;53.116;6.878;2022-11-28T11:25:44;20.53;;;14.40;;
15082;SDS011;7640;53.116;6.878;2022-11-28T11:28:28;21.83;;;15.40;;
15082;SDS011;7640;53.116;6.878;2022-11-28T11:31:14;22.57;;;15.07;;
15082;SDS011;7640;53.116;6.878;2022-11-28T11:33:49;21.13;;;15.20;;
15082;SDS011;7640;53.116;6.878;2022-11-28T11:36:21;20.00;;;14.53;;
15082;SDS011;7640;53.116;6.878;2022-11-28T11:39:06;22.47;;;16.27;;
15082;SDS011;7640;53.116;6.878;2022-11-28T11:41:48;21.93;;;15.57;;
15082;SDS011;7640;53.116;6.878;2022-11-28T11:44:36;22.70;;;15.37;;
15082;SDS011;7640;53.116;6.878;2022-11-28T11:47:05;22.03;;;15.30;;
15082;SDS011;7640;53.116;6.878;2022-11-28T11:49:36;22.20;;;15.63;;
15082;SDS011;7640;53.116;6.878;2022-11-28T11:52:13;24.30;;;17.03;;
15082;SDS011;7640;53.116;6.878;2022-11-28T11:54:55;23.33;;;16.73;;
15082;SDS011;7640;53.116;6.878;2022-11-28T11:57:31;22.23;;;16.53;;
15082;SDS011;7640;53.116;6.878;2022-11-28T12:00:09;24.87;;;16.47;;
15082;SDS011;7640;53.116;6.878;2022-11-28T12:02:46;22.90;;;16.17;;
15082;SDS011;7640;53.116;6.878;2022-11-28T12:05:20;26.87;;;16.90;;
15082;SDS011;7640;53.116;6.878;2022-11-28T12:08:18;22.43;;;15.67;;
15082;SDS011;7640;53.116;6.878;2022-11-28T12:11:00;26.50;;;16.87;;
15082;SDS011;7640;53.116;6.878;2022-11-28T12:13:38;27.73;;;18.47;;
15082;SDS011;7640;53.116;6.878;2022-11-28T12:16:09;27.40;;;18.20;;
15082;SDS011;7640;53.116;6.878;2022-11-28T12:19:08;27.20;;;18.57;;
15082;SDS011;7640;53.116;6.878;2022-11-28T12:22:04;26.93;;;18.27;;
15082;SDS011;7640;53.116;6.878;2022-11-28T12:24:41;27.77;;;18.17;;
15082;SDS011;7640;53.116;6.878;2022-11-28T12:27:24;29.73;;;17.63;;
15082;SDS011;7640;53.116;6.878;2022-11-28T12:30:08;25.80;;;18.37;;
15082;SDS011;7640;53.116;6.878;2022-11-28T12:32:55;28.43;;;18.77;;
15082;SDS011;7640;53.116;6.878;2022-11-28T12:35:40;28.40;;;18.60;;
15082;SDS011;7640;53.116;6.878;2022-11-28T12:38:15;25.47;;;18.03;;
15082;SDS011;7640;53.116;6.878;2022-11-28T12:40:59;27.90;;;17.97;;
15082;SDS011;7640;53.116;6.878;2022-11-28T12:43:56;25.60;;;17.90;;
15082;SDS011;7640;53.116;6.878;2022-11-28T12:46:33;27.00;;;18.37;;
15082;SDS011;7640;53.116;6.878;2022-11-28T12:49:13;25.73;;;17.77;;
15082;SDS011;7640;53.116;6.878;2022-11-28T12:51:50;30.57;;;19.20;;
15082;SDS011;7640;53.116;6.878;2022-11-28T12:54:32;29.07;;;17.97;;
15082;SDS011;7640;53.116;6.878;2022-11-28T12:57:15;27.00;;;17.93;;
15082;SDS011;7640;53.116;6.878;2022-11-28T12:59:54;26.13;;;17.77;;
15082;SDS011;7640;53.116;6.878;2022-11-28T13:02:37;27.60;;;18.33;;
15082;SDS011;7640;53.116;6.878;2022-11-28T13:05:20;29.00;;;19.23;;
15082;SDS011;7640;53.116;6.878;2022-11-28T13:08:07;30.20;;;18.93;;
15082;SDS011;7640;53.116;6.878;2022-11-28T13:11:00;26.63;;;17.83;;
15082;SDS011;7640;53.116;6.878;2022-11-28T13:13:40;26.57;;;17.90;;
15082;SDS011;7640;53.116;6.878;2022-11-28T13:16:15;24.10;;;17.30;;
15082;SDS011;7640;53.116;6.878;2022-11-28T13:18:53;23.83;;;17.63;;
15082;SDS011;7640;53.116;6.878;2022-11-28T13:21:28;25.70;;;18.43;;
15082;SDS011;7640;53.116;6.878;2022-11-28T13:24:09;21.83;;;16.27;;
15082;SDS011;7640;53.116;6.878;2022-11-28T13:26:49;24.07;;;16.97;;
15082;SDS011;7640;53.116;6.878;2022-11-28T13:29:27;27.40;;;18.73;;
15082;SDS011;7640;53.116;6.878;2022-11-28T13:32:06;22.87;;;16.23;;
15082;SDS011;7640;53.116;6.878;2022-11-28T13:34:39;23.57;;;16.43;;
15082;SDS011;7640;53.116;6.878;2022-11-28T13:37:10;24.33;;;17.10;;
15082;SDS011;7640;53.116;6.878;2022-11-28T13:40:05;22.07;;;14.90;;
15082;SDS011;7640;53.116;6.878;2022-11-28T13:42:48;23.30;;;16.13;;
15082;SDS011;7640;53.116;6.878;2022-11-28T13:45:33;20.60;;;15.60;;
15082;SDS011;7640;53.116;6.878;2022-11-28T13:51:38;22.90;;;16.10;;
15082;SDS011;7640;53.116;6.878;2022-11-28T13:57:15;23.27;;;15.90;;
15082;SDS011;7640;53.116;6.878;2022-11-28T13:59:50;23.17;;;16.27;;
15082;SDS011;7640;53.116;6.878;2022-11-28T14:02:32;22.53;;;15.83;;
15082;SDS011;7640;53.116;6.878;2022-11-28T14:05:15;22.03;;;15.07;;
15082;SDS011;7640;53.116;6.878;2022-11-28T14:07:54;22.33;;;15.80;;
15082;SDS011;7640;53.116;6.878;2022-11-28T14:10:27;25.67;;;15.70;;
15082;SDS011;7640;53.116;6.878;2022-11-28T14:13:42;21.83;;;15.63;;
15082;SDS011;7640;53.116;6.878;2022-11-28T14:16:25;23.77;;;15.30;;
15082;SDS011;7640;53.116;6.878;2022-11-28T14:19:20;24.17;;;16.57;;
15082;SDS011;7640;53.116;6.878;2022-11-28T14:22:06;24.30;;;15.57;;
15082;SDS011;7640;53.116;6.878;2022-11-28T14:24:52;24.37;;;16.60;;
15082;SDS011;7640;53.116;6.878;2022-11-28T14:27:26;27.90;;;18.03;;
15082;SDS011;7640;53.116;6.878;2022-11-28T14:29:58;28.40;;;17.77;;
15082;SDS011;7640;53.116;6.878;2022-11-28T14:32:31;29.20;;;17.60;;
15082;SDS011;7640;53.116;6.878;2022-11-28T14:35:05;25.73;;;17.10;;
15082;SDS011;7640;53.116;6.878;2022-11-28T14:37:47;28.30;;;16.90;;
15082;SDS011;7640;53.116;6.878;2022-11-28T14:43:38;26.57;;;16.43;;
15082;SDS011;7640;53.116;6.878;2022-11-28T14:46:20;28.43;;;17.00;;
15082;SDS011;7640;53.116;6.878;2022-11-28T14:52:04;23.37;;;16.40;;
15082;SDS011;7640;53.116;6.878;2022-11-28T14:55:13;21.23;;;15.43;;
15082;SDS011;7640;53.116;6.878;2022-11-28T14:57:53;26.93;;;16.73;;
15082;SDS011;7640;53.116;6.878;2022-11-28T15:00:26;23.70;;;16.17;;
15082;SDS011;7640;53.116;6.878;2022-11-28T15:03:06;23.93;;;15.10;;
15082;SDS011;7640;53.116;6.878;2022-11-28T15:05:48;22.03;;;15.17;;
15082;SDS011;7640;53.116;6.878;2022-11-28T15:08:24;22.80;;;15.53;;
15082;SDS011;7640;53.116;6.878;2022-11-28T15:11:08;23.43;;;16.03;;
15082;SDS011;7640;53.116;6.878;2022-11-28T15:16:48;19.93;;;14.83;;
15082;SDS011;7640;53.116;6.878;2022-11-28T15:19:21;22.23;;;14.40;;
15082;SDS011;7640;53.116;6.878;2022-11-28T15:21:53;22.27;;;14.53;;
15082;SDS011;7640;53.116;6.878;2022-11-28T15:24:23;21.67;;;14.20;;
15082;SDS011;7640;53.116;6.878;2022-11-28T15:26:55;19.00;;;13.40;;
15082;SDS011;7640;53.116;6.878;2022-11-28T15:29:42;21.90;;;15.33;;
15082;SDS011;7640;53.116;6.878;2022-11-28T15:32:22;18.90;;;13.80;;
15082;SDS011;7640;53.116;6.878;2022-11-28T15:34:53;18.03;;;13.13;;
15082;SDS011;7640;53.116;6.878;2022-11-28T15:37:26;17.60;;;13.13;;
15082;SDS011;7640;53.116;6.878;2022-11-28T15:39:59;21.13;;;14.20;;
15082;SDS011;7640;53.116;6.878;2022-11-28T15:42:32;20.80;;;14.40;;
15082;SDS011;7640;53.116;6.878;2022-11-28T15:45:04;22.50;;;15.00;;
15082;SDS011;7640;53.116;6.878;2022-11-28T15:47:54;21.93;;;15.07;;